createdAt,value
2023-02-28T00:01:11.604Z,6.83
2023-02-28T00:03:38.433Z,6.97
2023-02-28T00:06:06.250Z,7.30
2023-02-28T00:08:32.964Z,7.30
2023-02-28T00:11:04.757Z,7.10
2023-02-28T00:13:32.138Z,6.90
2023-02-28T00:16:04.841Z,7.17
2023-02-28T00:18:31.719Z,7.27
2023-02-28T00:20:59.006Z,6.53
2023-02-28T00:23:26.746Z,6.90
2023-02-28T00:25:53.507Z,6.27
2023-02-28T00:28:20.364Z,6.63
2023-02-28T00:30:47.153Z,6.07
2023-02-28T00:33:13.937Z,6.63
2023-02-28T00:35:40.873Z,6.50
2023-02-28T00:38:07.581Z,7.20
2023-02-28T00:40:34.259Z,6.33
2023-02-28T00:43:00.951Z,6.80
2023-02-28T00:45:27.658Z,6.87
2023-02-28T00:47:54.354Z,6.67
2023-02-28T00:50:21.958Z,6.30
2023-02-28T00:52:49.303Z,6.63
2023-02-28T00:55:16.202Z,6.87
2023-02-28T00:57:42.920Z,5.70
2023-02-28T01:00:10.298Z,6.60
2023-02-28T01:02:36.994Z,6.13
2023-02-28T01:05:04.194Z,6.17
2023-02-28T01:07:30.883Z,6.50
2023-02-28T01:09:57.643Z,6.23
2023-02-28T01:12:24.323Z,5.70
2023-02-28T01:14:50.996Z,6.13
2023-02-28T01:17:17.663Z,5.67
2023-02-28T01:19:44.321Z,6.47
2023-02-28T01:22:11.167Z,6.17
2023-02-28T01:24:38.802Z,5.80
2023-02-28T01:27:05.503Z,5.50
2023-02-28T01:29:32.176Z,5.67
2023-02-28T01:32:00.543Z,6.57
2023-02-28T01:34:27.300Z,6.00
2023-02-28T01:36:53.997Z,5.63
2023-02-28T01:39:20.732Z,6.00
2023-02-28T01:41:47.498Z,6.47
2023-02-28T01:44:51.903Z,5.90
2023-02-28T01:47:18.736Z,5.60
2023-02-28T01:49:46.164Z,5.73
2023-02-28T01:52:19.052Z,5.47
2023-02-28T01:54:53.279Z,5.93
2023-02-28T01:57:29.004Z,5.37
2023-02-28T02:00:01.036Z,6.10
2023-02-28T02:02:29.958Z,6.17
2023-02-28T02:05:03.610Z,5.63
2023-02-28T02:07:37.538Z,6.37
2023-02-28T02:10:28.082Z,5.73
2023-02-28T02:13:25.655Z,5.50
2023-02-28T02:16:24.752Z,6.17
2023-02-28T02:19:18.544Z,5.87
2023-02-28T02:22:07.014Z,5.83
2023-02-28T02:24:36.496Z,5.67
2023-02-28T02:27:24.664Z,5.67
2023-02-28T02:30:12.621Z,5.63
2023-02-28T02:32:47.564Z,4.90
2023-02-28T02:35:25.131Z,5.50
2023-02-28T02:38:13.937Z,5.67
2023-02-28T02:41:03.436Z,5.37
2023-02-28T02:43:38.940Z,5.40
2023-02-28T02:46:11.065Z,5.03
2023-02-28T02:48:41.308Z,5.57
2023-02-28T02:51:13.039Z,5.40
2023-02-28T02:53:46.611Z,5.30
2023-02-28T02:56:14.724Z,5.40
2023-02-28T02:58:44.719Z,5.83
2023-02-28T03:01:28.743Z,5.93
2023-02-28T03:04:02.005Z,5.60
2023-02-28T03:06:28.835Z,6.10
2023-02-28T03:08:55.632Z,5.80
2023-02-28T03:11:22.517Z,5.53
2023-02-28T03:14:24.489Z,6.43
2023-02-28T03:17:20.893Z,6.90
2023-02-28T03:19:56.336Z,6.20
2023-02-28T03:23:00.844Z,6.77
2023-02-28T03:25:50.138Z,6.13
2023-02-28T03:28:41.677Z,6.60
2023-02-28T03:31:17.205Z,5.97
2023-02-28T03:33:55.691Z,6.10
2023-02-28T03:36:31.142Z,6.00
2023-02-28T03:39:06.501Z,6.40
2023-02-28T03:42:14.866Z,6.20
2023-02-28T03:44:45.433Z,6.33
2023-02-28T03:47:17.216Z,5.63
2023-02-28T03:49:50.529Z,5.63
2023-02-28T03:52:20.754Z,5.60
2023-02-28T03:54:53.360Z,5.33
2023-02-28T03:57:40.699Z,5.70
2023-02-28T04:00:18.628Z,5.93
2023-02-28T04:02:45.666Z,5.87
2023-02-28T04:05:12.565Z,5.50
2023-02-28T04:07:40.320Z,5.87
2023-02-28T04:10:08.106Z,5.23
2023-02-28T04:12:34.817Z,5.83
2023-02-28T04:15:01.544Z,5.93
2023-02-28T04:17:28.311Z,5.93
2023-02-28T04:19:57.647Z,5.10
2023-02-28T04:22:27.590Z,5.20
2023-02-28T04:24:55.422Z,5.90
2023-02-28T04:27:22.563Z,5.90
2023-02-28T04:29:49.234Z,5.77
2023-02-28T04:32:16.116Z,5.50
2023-02-28T04:34:42.872Z,5.40
2023-02-28T04:37:13.782Z,5.07
2023-02-28T04:39:41.669Z,5.00
2023-02-28T04:42:08.467Z,4.90
2023-02-28T04:44:35.201Z,4.70
2023-02-28T04:47:02.018Z,4.50
2023-02-28T04:49:28.750Z,4.97
2023-02-28T04:51:55.749Z,5.30
2023-02-28T04:54:22.477Z,4.60
2023-02-28T04:56:50.903Z,5.10
2023-02-28T04:59:18.300Z,4.40
2023-02-28T05:01:48.656Z,4.97
2023-02-28T05:04:15.395Z,3.73
2023-02-28T05:06:42.246Z,4.30
2023-02-28T05:09:08.917Z,4.10
2023-02-28T05:11:36.318Z,4.60
2023-02-28T05:14:10.830Z,4.33
2023-02-28T05:16:37.549Z,4.00
2023-02-28T05:19:04.414Z,4.30
2023-02-28T05:21:32.617Z,3.97
2023-02-28T05:24:02.741Z,3.70
2023-02-28T05:26:30.250Z,4.47
2023-02-28T05:28:57.305Z,4.63
2023-02-28T05:31:24.638Z,4.37
2023-02-28T05:33:51.718Z,4.20
2023-02-28T05:36:18.512Z,4.80
2023-02-28T05:38:48.478Z,4.80
2023-02-28T05:41:15.841Z,4.83
2023-02-28T05:43:42.596Z,4.40
2023-02-28T05:46:11.563Z,4.53
2023-02-28T05:48:40.003Z,4.30
2023-02-28T05:51:09.089Z,4.57
2023-02-28T05:53:36.083Z,4.60
2023-02-28T05:56:02.991Z,4.53
2023-02-28T05:58:31.915Z,4.60
2023-02-28T06:01:00.062Z,4.73
2023-02-28T06:03:27.583Z,4.70
2023-02-28T06:05:54.662Z,4.50
2023-02-28T06:08:21.397Z,5.33
2023-02-28T06:10:48.153Z,4.90
2023-02-28T06:13:15.297Z,5.30
2023-02-28T06:15:42.494Z,4.70
2023-02-28T06:18:09.191Z,4.70
2023-02-28T06:20:37.159Z,4.67
2023-02-28T06:23:04.256Z,4.47
2023-02-28T06:25:31.070Z,4.33
2023-02-28T06:27:57.969Z,4.47
2023-02-28T06:30:27.720Z,4.70
2023-02-28T06:32:55.523Z,4.50
2023-02-28T06:35:22.870Z,4.73
2023-02-28T06:37:49.624Z,4.67
2023-02-28T06:40:16.567Z,3.93
2023-02-28T06:42:43.580Z,4.67
2023-02-28T06:45:11.637Z,4.60
2023-02-28T06:47:40.546Z,5.70
2023-02-28T06:50:10.161Z,4.93
2023-02-28T06:52:39.741Z,4.30
2023-02-28T06:55:08.421Z,4.73
2023-02-28T06:57:36.757Z,4.73
2023-02-28T07:00:10.420Z,4.00
2023-02-28T07:02:37.435Z,4.30
2023-02-28T07:05:05.347Z,4.47
2023-02-28T07:07:33.251Z,4.03
2023-02-28T07:10:00.047Z,4.40
2023-02-28T07:12:26.723Z,4.23
2023-02-28T07:14:53.398Z,5.63
2023-02-28T07:17:20.079Z,5.00
2023-02-28T07:19:46.741Z,4.47
2023-02-28T07:22:15.548Z,4.83
2023-02-28T07:24:42.701Z,4.43
2023-02-28T07:27:09.433Z,4.90
2023-02-28T07:29:36.144Z,4.80
2023-02-28T07:32:02.868Z,4.80
2023-02-28T07:34:30.052Z,4.50
2023-02-28T07:36:56.978Z,5.13
2023-02-28T07:39:24.050Z,4.73
2023-02-28T07:41:50.817Z,4.80
2023-02-28T07:44:17.555Z,4.60
2023-02-28T07:46:44.303Z,4.97
2023-02-28T07:49:11.184Z,4.67
2023-02-28T07:51:37.956Z,4.97
2023-02-28T07:54:05.075Z,5.20
2023-02-28T07:56:32.128Z,4.73
2023-02-28T07:58:59.205Z,5.17
2023-02-28T08:01:25.985Z,5.27
2023-02-28T08:03:52.941Z,5.30
2023-02-28T08:06:23.109Z,5.83
2023-02-28T08:08:50.669Z,5.80
2023-02-28T08:11:18.423Z,5.20
2023-02-28T08:13:45.976Z,5.50
2023-02-28T08:16:18.775Z,5.50
2023-02-28T08:18:45.835Z,4.73
2023-02-28T08:21:12.720Z,3.57
2023-02-28T08:23:40.041Z,4.13
2023-02-28T08:26:06.916Z,3.70
2023-02-28T08:28:33.762Z,3.57
2023-02-28T08:31:00.819Z,3.53
2023-02-28T08:33:28.959Z,3.60
2023-02-28T08:35:57.231Z,3.37
2023-02-28T08:38:24.835Z,3.33
2023-02-28T08:40:58.580Z,3.13
2023-02-28T08:43:25.384Z,2.93
2023-02-28T08:45:57.850Z,3.20
2023-02-28T08:48:26.378Z,3.10
2023-02-28T08:51:08.337Z,2.90
2023-02-28T08:53:40.256Z,2.30
2023-02-28T08:56:13.785Z,2.23
2023-02-28T08:58:41.526Z,2.67
2023-02-28T09:01:16.949Z,2.27
2023-02-28T09:03:44.493Z,2.40
2023-02-28T09:06:11.863Z,2.60
2023-02-28T09:08:38.892Z,2.87
2023-02-28T09:11:06.110Z,3.00
2023-02-28T09:13:33.887Z,2.80
2023-02-28T09:16:02.651Z,2.87
2023-02-28T09:18:30.326Z,2.57
2023-02-28T09:20:58.678Z,2.87
2023-02-28T09:23:25.850Z,2.53
2023-02-28T09:25:54.853Z,2.40
2023-02-28T09:28:22.441Z,2.50
2023-02-28T09:30:51.898Z,2.30
2023-02-28T09:33:21.871Z,2.07
2023-02-28T09:35:52.409Z,2.57
2023-02-28T09:38:19.226Z,2.30
2023-02-28T09:40:58.426Z,2.27
2023-02-28T09:43:29.377Z,2.27
2023-02-28T09:46:26.706Z,2.50
2023-02-28T09:48:54.220Z,2.33
2023-02-28T09:51:34.479Z,2.40
2023-02-28T09:54:02.286Z,2.40
2023-02-28T09:56:40.322Z,2.50
2023-02-28T09:59:17.618Z,2.03
2023-02-28T10:02:13.519Z,2.10
2023-02-28T10:04:52.424Z,2.37
2023-02-28T10:07:58.412Z,2.10
2023-02-28T10:10:33.749Z,2.30
2023-02-28T10:13:03.558Z,2.30
2023-02-28T10:15:32.985Z,1.97
2023-02-28T10:18:09.280Z,2.20
2023-02-28T10:20:41.013Z,2.27
2023-02-28T10:23:28.918Z,2.33
2023-02-28T10:26:00.803Z,2.27
2023-02-28T10:28:29.595Z,2.60
2023-02-28T10:30:56.936Z,2.33
2023-02-28T10:33:33.144Z,2.00
2023-02-28T10:36:00.319Z,2.17
2023-02-28T10:38:28.586Z,2.00
2023-02-28T10:41:09.700Z,2.67
2023-02-28T10:43:37.725Z,2.47
2023-02-28T10:46:10.402Z,2.37
2023-02-28T10:48:58.337Z,2.30
2023-02-28T10:51:25.588Z,2.40
2023-02-28T10:54:03.623Z,2.30
2023-02-28T10:56:31.998Z,2.20
2023-02-28T10:59:16.203Z,2.30
2023-02-28T11:01:53.734Z,2.13
2023-02-28T11:04:25.023Z,2.43
2023-02-28T11:07:00.624Z,2.37
2023-02-28T11:09:33.490Z,2.23
2023-02-28T11:12:00.947Z,2.20
2023-02-28T11:14:31.131Z,2.20
2023-02-28T11:17:04.001Z,2.20
2023-02-28T11:19:45.151Z,2.60
2023-02-28T11:22:18.333Z,2.20
2023-02-28T11:24:49.511Z,2.17
2023-02-28T11:27:42.867Z,2.60
2023-02-28T11:30:29.035Z,2.10
2023-02-28T11:32:55.882Z,2.53
2023-02-28T11:35:28.090Z,2.50
2023-02-28T11:37:54.953Z,2.40
2023-02-28T11:40:30.400Z,2.57
2023-02-28T11:43:07.550Z,2.90
2023-02-28T11:45:46.923Z,2.40
2023-02-28T11:48:24.344Z,2.50
2023-02-28T11:51:03.367Z,2.37
2023-02-28T11:54:00.914Z,2.70
2023-02-28T11:56:50.316Z,2.70
2023-02-28T11:59:52.563Z,2.40
2023-02-28T12:02:37.982Z,2.60
2023-02-28T12:05:18.353Z,2.60
2023-02-28T12:07:57.603Z,2.93
2023-02-28T12:10:47.711Z,2.60
2023-02-28T12:13:22.926Z,2.50
2023-02-28T12:16:20.106Z,2.77
2023-02-28T12:19:05.081Z,2.77
2023-02-28T12:21:49.754Z,2.70
2023-02-28T12:24:50.752Z,2.40
2023-02-28T12:27:22.867Z,2.30
2023-02-28T12:30:03.490Z,2.27
2023-02-28T12:32:35.293Z,2.70
2023-02-28T12:35:14.152Z,2.80
2023-02-28T12:38:11.566Z,2.50
2023-02-28T12:41:02.842Z,3.43
2023-02-28T12:43:38.235Z,2.50
2023-02-28T12:46:13.940Z,2.40
2023-02-28T12:48:47.304Z,3.10
2023-02-28T12:51:16.275Z,2.90
2023-02-28T12:54:06.291Z,2.60
2023-02-28T12:56:44.521Z,2.90
2023-02-28T12:59:14.546Z,2.83
2023-02-28T13:02:13.621Z,2.63
2023-02-28T13:05:14.370Z,3.20
2023-02-28T13:08:18.762Z,2.50
2023-02-28T13:10:48.878Z,2.73
2023-02-28T13:13:21.127Z,2.40
2023-02-28T13:16:06.807Z,2.73
2023-02-28T13:18:37.245Z,2.53
2023-02-28T13:21:06.489Z,2.40
2023-02-28T13:23:48.032Z,2.60
2023-02-28T13:26:14.764Z,2.70
2023-02-28T13:28:54.760Z,2.47
2023-02-28T13:31:21.960Z,2.50
2023-02-28T13:33:51.654Z,2.87
2023-02-28T13:36:18.410Z,2.40
2023-02-28T13:38:49.885Z,2.40
2023-02-28T13:41:35.229Z,2.77
2023-02-28T13:44:04.105Z,2.70
2023-02-28T13:46:32.098Z,2.63
2023-02-28T13:49:21.744Z,2.50
2023-02-28T13:51:52.579Z,2.60
2023-02-28T13:54:30.192Z,2.60
2023-02-28T13:57:10.879Z,2.60
2023-02-28T14:00:06.525Z,2.37
2023-02-28T14:02:50.176Z,2.10
2023-02-28T14:05:20.768Z,2.00
2023-02-28T14:07:54.273Z,2.00
2023-02-28T14:10:31.386Z,1.87
2023-02-28T14:13:05.158Z,1.93
2023-02-28T14:15:40.776Z,2.20
2023-02-28T14:18:30.593Z,2.00
2023-02-28T14:21:15.454Z,2.40
2023-02-28T14:24:17.699Z,2.00
2023-02-28T14:27:26.123Z,1.97
2023-02-28T14:30:31.187Z,2.10
2023-02-28T14:33:06.807Z,2.00
2023-02-28T14:35:56.842Z,1.90
2023-02-28T14:38:29.016Z,1.87
2023-02-28T14:40:58.203Z,2.17
2023-02-28T14:43:29.844Z,2.33
2023-02-28T14:45:59.192Z,2.40
2023-02-28T14:48:27.800Z,2.00
2023-02-28T14:51:00.828Z,2.13
2023-02-28T14:53:31.067Z,2.27
2023-02-28T14:55:57.985Z,2.30
2023-02-28T14:58:30.632Z,2.20
2023-02-28T15:01:02.842Z,2.20
2023-02-28T15:03:38.166Z,2.23
2023-02-28T15:06:18.757Z,2.70
2023-02-28T15:08:46.519Z,2.30
2023-02-28T15:11:19.928Z,2.30
2023-02-28T15:13:52.097Z,2.17
2023-02-28T15:16:20.405Z,2.20
2023-02-28T15:19:00.346Z,2.47
2023-02-28T15:21:44.332Z,2.40
2023-02-28T15:24:36.166Z,2.67
2023-02-28T15:27:07.190Z,2.20
2023-02-28T15:29:44.625Z,2.37
2023-02-28T15:32:36.101Z,2.23
2023-02-28T15:35:29.431Z,2.50
2023-02-28T15:38:06.404Z,2.13
2023-02-28T15:40:38.683Z,2.20
2023-02-28T15:43:16.400Z,2.33
2023-02-28T15:45:51.000Z,2.37
2023-02-28T15:48:22.035Z,2.23
2023-02-28T15:50:53.077Z,2.90
2023-02-28T15:53:48.779Z,2.50
2023-02-28T15:56:33.095Z,2.37
2023-02-28T15:59:06.690Z,2.30
2023-02-28T16:01:35.551Z,2.63
2023-02-28T16:04:05.855Z,2.80
2023-02-28T16:06:43.158Z,2.60
2023-02-28T16:09:13.255Z,2.80
2023-02-28T16:11:44.187Z,2.63
2023-02-28T16:14:32.931Z,3.10
2023-02-28T16:17:11.507Z,2.60
2023-02-28T16:19:38.265Z,2.77
2023-02-28T16:22:04.979Z,2.87
2023-02-28T16:24:31.668Z,3.60
2023-02-28T16:26:58.840Z,3.10
2023-02-28T16:29:32.947Z,3.40
2023-02-28T16:32:00.591Z,3.23
2023-02-28T16:34:27.816Z,3.00
2023-02-28T16:36:54.695Z,3.27
2023-02-28T16:39:21.759Z,2.70
2023-02-28T16:41:49.873Z,3.60
2023-02-28T16:44:29.489Z,3.20
2023-02-28T16:46:56.265Z,3.27
2023-02-28T16:49:23.195Z,3.20
2023-02-28T16:51:49.875Z,3.40
2023-02-28T16:54:16.541Z,3.10
2023-02-28T16:56:47.871Z,2.83
2023-02-28T16:59:19.176Z,3.63
2023-02-28T17:01:45.993Z,3.03
2023-02-28T17:04:12.904Z,3.77
2023-02-28T17:06:41.093Z,3.00
2023-02-28T17:09:16.446Z,3.07
2023-02-28T17:11:45.306Z,3.43
2023-02-28T17:14:11.992Z,3.40
2023-02-28T17:16:43.091Z,4.13
2023-02-28T17:19:15.069Z,3.37
2023-02-28T17:21:43.167Z,3.40
2023-02-28T17:24:16.571Z,3.80
2023-02-28T17:26:46.106Z,3.70
2023-02-28T17:29:17.017Z,3.13
2023-02-28T17:31:44.290Z,42.47
2023-02-28T17:34:11.305Z,78.90
2023-02-28T17:36:38.331Z,43.47
2023-02-28T17:39:11.897Z,10.13
2023-02-28T17:41:38.670Z,37.93
2023-02-28T17:44:05.562Z,11.37
2023-02-28T17:46:33.488Z,3.70
2023-02-28T17:49:00.958Z,3.30
2023-02-28T17:51:27.786Z,3.40
2023-02-28T17:53:54.642Z,3.87
2023-02-28T17:56:26.698Z,3.30
2023-02-28T17:58:56.143Z,3.50
2023-02-28T18:01:25.270Z,3.33
2023-02-28T18:03:52.507Z,3.30
2023-02-28T18:06:24.822Z,3.50
2023-02-28T18:08:54.966Z,3.57
2023-02-28T18:11:24.252Z,3.63
2023-02-28T18:13:53.824Z,3.30
2023-02-28T18:16:22.335Z,3.73
2023-02-28T18:18:50.030Z,3.67
2023-02-28T18:21:17.558Z,3.57
2023-02-28T18:23:48.481Z,3.50
2023-02-28T18:26:17.336Z,3.80
2023-02-28T18:28:44.671Z,4.00
2023-02-28T18:31:16.261Z,4.17
2023-02-28T18:33:48.914Z,4.20
2023-02-28T18:36:16.252Z,3.87
2023-02-28T18:38:43.767Z,4.17
2023-02-28T18:41:10.670Z,4.00
2023-02-28T18:43:40.502Z,4.57
2023-02-28T18:46:15.952Z,4.77
2023-02-28T18:48:43.148Z,4.20
2023-02-28T18:51:15.916Z,3.90
2023-02-28T18:53:44.030Z,4.00
2023-02-28T18:56:13.632Z,4.57
2023-02-28T18:58:41.000Z,4.27
2023-02-28T19:01:30.981Z,4.40
2023-02-28T19:04:01.063Z,4.00
2023-02-28T19:06:29.968Z,4.40
2023-02-28T19:08:58.661Z,4.30
2023-02-28T19:11:25.970Z,4.50
2023-02-28T19:13:53.205Z,4.43
2023-02-28T19:16:21.521Z,4.67
2023-02-28T19:18:48.455Z,4.83
2023-02-28T19:21:17.645Z,5.47
2023-02-28T19:23:44.757Z,5.63
2023-02-28T19:26:14.063Z,5.50
2023-02-28T19:28:40.820Z,5.77
2023-02-28T19:31:15.887Z,6.50
2023-02-28T19:33:43.022Z,6.20
2023-02-28T19:36:13.632Z,6.57
2023-02-28T19:38:41.189Z,6.63
2023-02-28T19:41:11.030Z,5.80
2023-02-28T19:43:37.769Z,6.57
2023-02-28T19:46:05.768Z,6.40
2023-02-28T19:48:36.244Z,6.60
2023-02-28T19:51:09.579Z,6.30
2023-02-28T19:53:37.993Z,7.33
2023-02-28T19:56:05.414Z,7.20
2023-02-28T19:58:32.916Z,7.37
2023-02-28T20:01:06.335Z,7.50
2023-02-28T20:03:33.168Z,7.57
2023-02-28T20:06:02.387Z,8.67
2023-02-28T20:08:29.576Z,8.90
2023-02-28T20:11:02.466Z,8.57
2023-02-28T20:13:29.387Z,8.20
2023-02-28T20:15:59.435Z,8.77
2023-02-28T20:18:26.211Z,8.37
2023-02-28T20:20:55.707Z,8.33
2023-02-28T20:23:22.737Z,8.20
2023-02-28T20:25:51.534Z,9.27
2023-02-28T20:28:19.492Z,9.10
2023-02-28T20:30:48.890Z,9.70
2023-02-28T20:33:17.016Z,10.23
2023-02-28T20:35:44.158Z,9.70
2023-02-28T20:38:11.355Z,10.03
2023-02-28T20:40:38.482Z,10.07
2023-02-28T20:43:05.332Z,10.97
2023-02-28T20:45:32.096Z,10.30
2023-02-28T20:47:58.916Z,10.20
2023-02-28T20:50:25.788Z,11.23
2023-02-28T20:52:52.988Z,11.70
2023-02-28T20:55:20.591Z,11.53
2023-02-28T20:57:47.490Z,12.57
2023-02-28T21:00:20.499Z,13.43
2023-02-28T21:02:47.314Z,13.60
2023-02-28T21:05:14.480Z,12.53
2023-02-28T21:07:41.330Z,12.53
2023-02-28T21:10:09.601Z,14.00
2023-02-28T21:12:36.531Z,13.20
2023-02-28T21:15:03.425Z,12.73
2023-02-28T21:17:30.232Z,12.87
2023-02-28T21:19:56.939Z,12.47
2023-02-28T21:22:23.620Z,11.40
2023-02-28T21:24:50.281Z,12.40
2023-02-28T21:27:17.048Z,11.77
2023-02-28T21:29:43.744Z,11.23
2023-02-28T21:32:10.461Z,11.30
2023-02-28T21:34:37.272Z,12.27
2023-02-28T21:37:03.938Z,12.67
2023-02-28T21:39:31.028Z,12.67
2023-02-28T21:42:03.929Z,11.70
2023-02-28T21:44:34.265Z,11.90
2023-02-28T21:47:01.825Z,11.10
2023-02-28T21:49:29.118Z,11.93
2023-02-28T21:51:55.885Z,11.03
2023-02-28T21:54:22.702Z,11.83
2023-02-28T21:56:52.333Z,11.50
2023-02-28T21:59:19.923Z,11.43
2023-02-28T22:01:49.444Z,10.60
2023-02-28T22:04:26.686Z,11.60
2023-02-28T22:06:58.596Z,10.87
2023-02-28T22:09:26.044Z,14.47
2023-02-28T22:11:52.702Z,10.80
2023-02-28T22:14:19.559Z,12.23
2023-02-28T22:16:55.145Z,13.00
2023-02-28T22:19:23.281Z,12.10
2023-02-28T22:21:50.473Z,12.27
2023-02-28T22:24:20.534Z,12.87
2023-02-28T22:26:49.165Z,13.50
2023-02-28T22:29:15.912Z,13.67
2023-02-28T22:31:42.800Z,13.27
2023-02-28T22:34:12.033Z,14.37
2023-02-28T22:36:41.904Z,13.07
2023-02-28T22:39:09.264Z,13.20
2023-02-28T22:41:36.427Z,12.17
2023-02-28T22:44:05.308Z,12.87
2023-02-28T22:46:34.098Z,11.53
2023-02-28T22:49:05.364Z,12.10
2023-02-28T22:51:33.020Z,11.97
2023-02-28T22:53:59.786Z,11.90
2023-02-28T22:56:28.991Z,11.97
2023-02-28T22:58:57.849Z,10.97
2023-02-28T23:01:26.716Z,11.83
2023-02-28T23:03:53.818Z,10.77
2023-02-28T23:06:23.618Z,12.17
2023-02-28T23:08:51.960Z,11.03
2023-02-28T23:11:24.927Z,11.93
2023-02-28T23:13:58.846Z,10.83
2023-02-28T23:16:30.376Z,12.30
2023-02-28T23:18:59.300Z,10.83
2023-02-28T23:21:26.997Z,11.30
2023-02-28T23:23:54.789Z,10.60
2023-02-28T23:26:21.792Z,11.50
2023-02-28T23:28:48.527Z,10.97
2023-02-28T23:31:15.676Z,10.67
2023-02-28T23:33:42.471Z,10.03
2023-02-28T23:36:12.136Z,10.67
2023-02-28T23:38:39.853Z,11.37
2023-02-28T23:41:11.053Z,10.83
2023-02-28T23:43:38.269Z,10.33
2023-02-28T23:46:05.209Z,10.77
2023-02-28T23:48:32.393Z,10.90
2023-02-28T23:51:08.509Z,10.57
2023-02-28T23:53:40.098Z,10.20
2023-02-28T23:56:09.641Z,10.03
2023-02-28T23:58:36.910Z,9.77
